This is the latest recevied weather packets stored in our database for station/object KN1OBI-13. If no packets are shown the sender has not sent any weather packets the latest 10 day(s).
| Time | Temp. | Humidity | Pressure | Rain* | Wind** | Luminosity | Snow |
|---|---|---|---|---|---|---|---|
| 1788054991 | 16.11° C | 74% | 1001.4 hPa | 0 mm | - | - | - |
| 1788054391 | 16.11° C | 74% | 1001 hPa | 0 mm | - | - | - |
| 1788053791 | 16.11° C | 73% | 1001.3 hPa | 0 mm | - | - | - |
| 1788053191 | 16.11° C | 73% | 1001 hPa | 0 mm | - | - | - |
| 1788052591 | 16.67° C | 73% | 1001 hPa | 0 mm | - | - | - |
| 1788051991 | 16.67° C | 72% | 1001 hPa | 0 mm | - | - | - |
| 1788051391 | 16.67° C | 71% | 1001 hPa | 0 mm | - | - | - |
| 1788050791 | 17.22° C | 71% | 1001 hPa | 0 mm | - | - | - |
| 1788050191 | 17.22° C | 70% | 1001 hPa | 0 mm | - | - | - |
| 1788049591 | 17.78° C | 69% | 1001.2 hPa | 0 mm | - | - | - |
| 1788048991 | 17.78° C | 68% | 1001 hPa | 0 mm | - | - | - |
| 1788048391 | 17.78° C | 68% | 1001 hPa | 0 mm | - | - | - |
| 1788047791 | 18.33° C | 67% | 1000.7 hPa | 0 mm | - | - | - |
| 1788047191 | 18.89° C | 67% | 1000.3 hPa | 0 mm | - | - | - |
| 1788046591 | 19.44° C | 64% | 1000.3 hPa | 0 mm | - | - | - |
| 1788045991 | 20° C | 62% | 1000.5 hPa | 0 mm | - | - | - |
| 1788045391 | 20.56° C | 61% | 1000.5 hPa | 0 mm | - | - | - |
| 1788044791 | 21.11° C | 59% | 1000.6 hPa | 0 mm | - | - | - |
| 1788044191 | 21.67° C | 57% | 1000.5 hPa | 0 mm | - | - | - |
| 1788043591 | 22.22° C | 54% | 1000.5 hPa | 0 mm | - | - | - |
| 1788042991 | 22.78° C | 52% | 1000.7 hPa | 0 mm | - | - | - |
| 1788042391 | 23.33° C | 50% | 1000.6 hPa | 0 mm | - | - | - |
| 1788041791 | 24.44° C | 51% | 1000.7 hPa | 0 mm | - | - | - |
| 1788041191 | 26.67° C | 47% | 1000.6 hPa | 0 mm | - | - | - |
| 1788040591 | 27.78° C | 43% | 1000.7 hPa | 0 mm | - | - | - |
* Rain latest hour (hover to see other rain measurements)
** Current wind speed in m/s (hover to see current wind gust speed)